Time;durP1;ratioP1;P1;durP2;ratioP2;P2;SDS_P1;SDS_P2;PMS_P1;PMS_P2;Temp;Humidity;BMP_temperature;BMP_pressure;BME280_temperature;BME280_humidity;BME280_pressure;Samples;Min_cycle;Max_cycle;Signal;HPM_P1;HPM_P2
2021/11/28 00:00:55;;;;;;;8.35;3.80;;;1.00;99.90;;;;;;12257322;28;20051;-37
2021/11/28 00:07:02;;;;;;;9.95;4.10;;;0.90;99.90;;;;;;12245337;28;20067;-37
2021/11/28 00:13:07;;;;;;;12.45;4.00;;;0.90;99.90;;;;;;12210502;29;20106;-38
2021/11/28 00:19:09;;;;;;;11.43;3.88;;;0.80;99.90;;;;;;12213060;29;20689;-39
2021/11/28 00:25:15;;;;;;;14.38;4.25;;;0.80;99.90;;;;;;12201572;29;20055;-39
2021/11/28 00:31:16;;;;;;;13.60;4.05;;;0.80;99.90;;;;;;12208502;29;20062;-37
2021/11/28 00:37:18;;;;;;;11.63;4.10;;;0.80;99.90;;;;;;12214492;29;20099;-39
2021/11/28 00:43:20;;;;;;;10.27;3.50;;;0.90;99.90;;;;;;12200987;29;20048;-38
2021/11/28 00:49:25;;;;;;;11.77;4.55;;;0.90;99.90;;;;;;12219341;29;20125;-38
2021/11/28 00:55:26;;;;;;;6.53;3.50;;;0.90;99.90;;;;;;12218937;29;20056;-37
2021/11/28 01:01:29;;;;;;;10.50;4.47;;;1.00;99.90;;;;;;12217988;29;20076;-38
2021/11/28 01:07:32;;;;;;;9.88;4.00;;;1.10;99.90;;;;;;12242215;28;20469;-39
2021/11/28 01:13:34;;;;;;;13.30;4.85;;;1.00;99.90;;;;;;12267477;28;20510;-38
2021/11/28 01:19:38;;;;;;;14.27;5.50;;;1.20;99.90;;;;;;12264887;28;20086;-40
2021/11/28 01:25:40;;;;;;;13.27;6.05;;;1.10;99.90;;;;;;12268171;28;20055;-37
2021/11/28 01:31:42;;;;;;;13.18;6.35;;;1.20;99.90;;;;;;12268326;28;20934;-39
2021/11/28 01:37:45;;;;;;;14.50;5.88;;;1.20;99.90;;;;;;12264801;28;20060;-39
2021/11/28 01:43:50;;;;;;;14.50;7.13;;;1.40;99.90;;;;;;12267734;28;20059;-39
2021/11/28 01:49:52;;;;;;;14.00;7.45;;;1.30;99.90;;;;;;12263766;28;20106;-39
2021/11/28 01:55:56;;;;;;;16.58;7.43;;;1.00;99.90;;;;;;12261700;28;20191;-38
2021/11/28 02:01:58;;;;;;;12.75;7.03;;;0.80;99.90;;;;;;12260540;28;20440;-37
2021/11/28 02:08:02;;;;;;;20.43;8.13;;;0.60;99.90;;;;;;12256174;28;20055;-39
2021/11/28 02:14:04;;;;;;;12.02;6.40;;;0.50;99.90;;;;;;12265668;28;20303;-39
2021/11/28 02:20:08;;;;;;;13.73;6.25;;;0.60;99.90;;;;;;12262224;28;20039;-38
2021/11/28 02:26:14;;;;;;;12.57;7.33;;;0.70;99.90;;;;;;12259261;28;20628;-38
2021/11/28 02:32:16;;;;;;;19.70;6.57;;;0.80;99.90;;;;;;12261289;28;20066;-40
2021/11/28 02:38:18;;;;;;;10.80;6.68;;;0.90;99.90;;;;;;12263996;28;20054;-37
2021/11/28 02:44:20;;;;;;;14.15;6.75;;;0.90;99.90;;;;;;12259040;28;20531;-37
2021/11/28 02:50:23;;;;;;;14.57;6.88;;;0.90;99.90;;;;;;12257667;28;20079;-39
2021/11/28 02:56:24;;;;;;;11.38;6.60;;;0.80;99.90;;;;;;12263434;28;20059;-37
2021/11/28 03:02:26;;;;;;;13.07;6.40;;;0.60;99.90;;;;;;12258158;28;20063;-38
2021/11/28 03:08:28;;;;;;;12.25;5.97;;;0.50;99.90;;;;;;12258616;28;20078;-39
2021/11/28 03:14:30;;;;;;;13.00;6.30;;;0.50;99.90;;;;;;12260453;28;20531;-39
2021/11/28 03:20:32;;;;;;;13.30;6.32;;;0.60;99.90;;;;;;12257725;28;20082;-39
2021/11/28 03:26:37;;;;;;;10.40;5.22;;;0.40;99.90;;;;;;12262804;28;20056;-38
2021/11/28 03:32:40;;;;;;;13.48;4.53;;;0.40;99.90;;;;;;12264734;28;20047;-38
2021/11/28 03:38:43;;;;;;;10.23;3.97;;;0.50;99.90;;;;;;12259615;28;20497;-39
2021/11/28 03:44:45;;;;;;;8.57;4.03;;;0.60;99.90;;;;;;12256941;28;20055;-37
2021/11/28 03:50:47;;;;;;;11.27;4.03;;;0.70;99.90;;;;;;12261420;28;20084;-39
2021/11/28 03:56:49;;;;;;;8.85;4.05;;;0.90;99.90;;;;;;12258211;28;20122;-38
2021/11/28 04:02:51;;;;;;;7.32;3.90;;;1.00;99.90;;;;;;12259506;28;20055;-38
2021/11/28 04:08:56;;;;;;;12.68;3.70;;;1.00;99.90;;;;;;12259233;28;20056;-38
2021/11/28 04:14:59;;;;;;;13.15;3.90;;;1.00;99.90;;;;;;12259822;28;20059;-39
2021/11/28 04:21:01;;;;;;;7.25;3.42;;;1.00;99.90;;;;;;12260241;28;20496;-38
2021/11/28 04:27:03;;;;;;;14.02;4.90;;;0.90;99.90;;;;;;12261075;28;20050;-39
2021/11/28 04:33:05;;;;;;;7.90;3.90;;;0.90;99.90;;;;;;12260307;28;20047;-37
2021/11/28 04:39:07;;;;;;;8.88;3.90;;;0.90;99.90;;;;;;12257731;28;20099;-39
2021/11/28 04:45:11;;;;;;;18.60;6.55;;;0.80;99.90;;;;;;12259837;28;20095;-37
2021/11/28 04:51:13;;;;;;;11.30;6.00;;;0.70;99.90;;;;;;12257030;28;20094;-37
2021/11/28 04:57:15;;;;;;;11.80;5.95;;;0.60;99.90;;;;;;12259595;28;20105;-39
2021/11/28 05:03:17;;;;;;;13.57;6.13;;;0.60;99.90;;;;;;12252660;28;20090;-37
2021/11/28 05:09:21;;;;;;;9.50;6.07;;;0.80;99.90;;;;;;12244464;28;20051;-37
2021/11/28 05:15:23;;;;;;;12.75;7.35;;;0.70;99.90;;;;;;12253546;28;20492;-38
2021/11/28 05:21:25;;;;;;;15.40;6.78;;;0.40;99.90;;;;;;12251694;28;20047;-38
2021/11/28 05:27:27;;;;;;;12.95;7.10;;;0.30;99.90;;;;;;12264816;28;20055;-39
2021/11/28 05:33:29;;;;;;;16.17;6.82;;;0.20;99.90;;;;;;12263230;28;20574;-38
2021/11/28 05:39:31;;;;;;;14.77;7.47;;;0.30;99.90;;;;;;12269214;28;20118;-38
2021/11/28 05:45:33;;;;;;;10.98;6.32;;;0.40;99.90;;;;;;12261540;28;20059;-38
2021/11/28 05:51:34;;;;;;;14.82;6.43;;;0.40;99.90;;;;;;12259640;28;20070;-38
2021/11/28 05:57:36;;;;;;;15.82;6.13;;;0.40;99.90;;;;;;12243555;28;20051;-39
2021/11/28 06:03:38;;;;;;;13.15;5.80;;;0.30;99.90;;;;;;12265198;28;20154;-38
2021/11/28 06:09:40;;;;;;;13.25;4.95;;;0.10;99.90;;;;;;12254598;28;20122;-38
2021/11/28 06:15:42;;;;;;;11.43;5.68;;;0.00;99.90;;;;;;12250105;28;20583;-39
2021/11/28 06:21:44;;;;;;;10.65;4.68;;;0.00;99.90;;;;;;12261815;28;20047;-38
2021/11/28 06:27:46;;;;;;;12.93;5.15;;;0.30;99.90;;;;;;12262869;28;20047;-39
2021/11/28 06:33:48;;;;;;;12.48;5.13;;;0.60;99.90;;;;;;12262022;28;20066;-37
2021/11/28 06:39:50;;;;;;;10.95;5.32;;;0.70;99.90;;;;;;12267522;28;20051;-38
2021/11/28 06:45:52;;;;;;;16.42;5.90;;;0.80;99.90;;;;;;12262088;28;20047;-38
2021/11/28 06:51:56;;;;;;;14.65;6.25;;;0.90;99.90;;;;;;12260367;28;20098;-38
2021/11/28 06:57:58;;;;;;;11.57;5.25;;;1.00;99.90;;;;;;12261547;28;20105;-37
2021/11/28 07:04:00;;;;;;;9.63;4.55;;;1.00;99.90;;;;;;12263039;28;20044;-39
2021/11/28 07:10:03;;;;;;;13.68;5.35;;;1.00;99.90;;;;;;12268050;28;20051;-37
2021/11/28 07:16:07;;;;;;;8.27;4.47;;;1.10;99.90;;;;;;12269386;28;20166;-39
2021/11/28 07:22:10;;;;;;;;;;;1.10;99.90;;;;;;12272063;28;20050;-38
2021/11/28 07:28:13;;;;;;;12.80;5.18;;;1.20;99.90;;;;;;12262348;28;19926;-38
2021/11/28 07:34:16;;;;;;;10.13;5.03;;;1.20;99.90;;;;;;12267012;28;20102;-39
2021/11/28 07:40:19;;;;;;;15.10;5.40;;;1.20;99.90;;;;;;12264501;28;20919;-38
2021/11/28 07:46:21;;;;;;;13.07;5.15;;;1.20;99.90;;;;;;12266699;28;20058;-39
2021/11/28 07:52:27;;;;;;;11.88;5.38;;;1.10;99.90;;;;;;12254649;28;20058;-39
2021/11/28 07:58:29;;;;;;;14.50;5.68;;;1.10;99.90;;;;;;12265393;28;20093;-38
2021/11/28 08:04:34;;;;;;;9.98;5.72;;;1.20;99.90;;;;;;12265886;28;20070;-39
2021/11/28 08:10:39;;;;;;;16.35;9.00;;;1.30;99.90;;;;;;12256881;28;20466;-38
2021/11/28 08:16:42;;;;;;;14.93;9.10;;;1.40;99.90;;;;;;12245301;28;20085;-38
2021/11/28 08:22:45;;;;;;;22.27;12.07;;;1.50;99.90;;;;;;12260852;28;20048;-39
2021/11/28 08:28:47;;;;;;;20.75;8.43;;;1.70;99.90;;;;;;12252431;28;20405;-39
2021/11/28 08:34:50;;;;;;;9.20;5.53;;;1.60;99.90;;;;;;12262072;28;20733;-39
2021/11/28 08:40:52;;;;;;;12.20;6.07;;;1.50;99.90;;;;;;12240509;28;20078;-38
2021/11/28 08:46:54;;;;;;;14.55;9.45;;;1.80;99.90;;;;;;12257353;28;20095;-39
2021/11/28 08:52:58;;;;;;;17.48;8.55;;;2.20;99.90;;;;;;12254465;28;20134;-39
2021/11/28 08:59:00;;;;;;;13.48;7.47;;;2.30;99.90;;;;;;12264650;28;20082;-40
2021/11/28 09:05:05;;;;;;;13.65;5.97;;;2.20;99.90;;;;;;12271773;28;20047;-38
2021/11/28 09:11:08;;;;;;;8.77;5.78;;;2.30;99.90;;;;;;12265736;28;20145;-39
2021/11/28 09:17:10;;;;;;;11.80;5.88;;;2.50;99.90;;;;;;12255149;28;20047;-39
2021/11/28 09:29:19;;;;;;;10.65;6.90;;;2.40;99.90;;;;;;12264730;28;20060;-39
2021/11/28 09:35:25;;;;;;;15.98;8.43;;;2.80;99.90;;;;;;12265026;28;20126;-38
2021/11/28 09:41:34;;;;;;;16.23;9.35;;;3.00;99.90;;;;;;12269820;28;20097;-38
2021/11/28 09:47:38;;;;;;;16.35;10.10;;;3.20;99.90;;;;;;12269819;28;20522;-38
2021/11/28 09:53:42;;;;;;;;;;;3.30;99.90;;;;;;12267175;28;20182;-38
2021/11/28 09:59:45;;;;;;;13.77;7.88;;;3.10;99.90;;;;;;12267434;28;20005;-39
2021/11/28 10:05:53;;;;;;;16.00;7.85;;;3.00;99.90;;;;;;12267720;28;20082;-38
2021/11/28 10:12:13;;;;;;;14.32;8.32;;;3.00;99.90;;;;;;12251378;28;20105;-38
2021/11/28 10:18:15;;;;;;;20.33;8.93;;;3.00;99.90;;;;;;12266721;28;20055;-39
2021/11/28 10:24:18;;;;;;;14.30;9.02;;;2.90;99.90;;;;;;12260243;28;20047;-38
2021/11/28 10:30:26;;;;;;;18.77;10.05;;;2.90;99.90;;;;;;12256321;28;20090;-39
2021/11/28 10:36:29;;;;;;;19.98;11.40;;;2.90;99.90;;;;;;12249715;28;20138;-38
2021/11/28 10:42:34;;;;;;;24.08;14.05;;;3.10;99.90;;;;;;12264494;28;20142;-39
2021/11/28 10:48:35;;;;;;;18.27;10.95;;;2.90;99.90;;;;;;12269490;28;20496;-38
2021/11/28 10:54:44;;;;;;;21.90;11.18;;;2.80;99.90;;;;;;12254768;28;20062;-38
2021/11/28 11:00:50;;;;;;;19.80;10.27;;;2.70;99.90;;;;;;12242965;28;20083;-39
2021/11/28 11:07:13;;;;;;;17.83;9.63;;;2.80;99.90;;;;;;12258492;28;20435;-37
2021/11/28 11:13:19;;;;;;;16.52;9.98;;;3.00;99.90;;;;;;12265886;28;20093;-38
2021/11/28 11:19:35;;;;;;;17.35;9.70;;;3.20;99.90;;;;;;12268132;28;20098;-39
2021/11/28 11:25:46;;;;;;;18.67;10.15;;;3.10;99.90;;;;;;12266460;28;20085;-38
2021/11/28 11:31:57;;;;;;;16.63;10.23;;;3.00;99.90;;;;;;12244364;28;20048;-38
2021/11/28 11:38:04;;;;;;;17.08;10.70;;;3.00;99.90;;;;;;12271789;28;20046;-38
2021/11/28 11:44:07;;;;;;;17.75;11.27;;;2.90;99.90;;;;;;12265243;28;20043;-38
2021/11/28 11:50:12;;;;;;;17.95;10.45;;;3.10;99.90;;;;;;12264471;28;20106;-38
2021/11/28 11:56:19;;;;;;;17.65;11.02;;;3.20;99.90;;;;;;12260668;28;20054;-39
2021/11/28 12:02:42;;;;;;;18.02;11.45;;;3.40;99.90;;;;;;12262587;28;20140;-39
2021/11/28 12:08:48;;;;;;;20.40;11.05;;;3.50;99.90;;;;;;12261400;28;20058;-39
2021/11/28 12:15:24;;;;;;;19.20;11.60;;;3.40;99.90;;;;;;12260790;28;20055;-37
2021/11/28 12:21:33;;;;;;;21.55;12.23;;;3.30;99.90;;;;;;12267206;28;20054;-37
2021/11/28 12:27:49;;;;;;;26.67;14.48;;;3.50;99.90;;;;;;12259927;28;20062;-38
2021/11/28 12:34:06;;;;;;;25.00;13.65;;;3.40;99.90;;;;;;12260539;28;20547;-38
2021/11/28 12:40:27;;;;;;;25.30;14.15;;;3.30;99.90;;;;;;12252234;28;20047;-38
2021/11/28 12:46:56;;;;;;;28.15;13.75;;;3.20;99.90;;;;;;12273319;28;20059;-38
2021/11/28 12:53:04;;;;;;;25.05;13.85;;;3.30;99.90;;;;;;12256088;28;20051;-39
2021/11/28 12:59:10;;;;;;;22.83;12.73;;;3.30;99.90;;;;;;12263545;28;20931;-39
2021/11/28 13:05:31;;;;;;;25.60;13.30;;;3.40;99.90;;;;;;12264240;28;20078;-37
2021/11/28 13:11:37;;;;;;;26.55;13.63;;;3.30;99.90;;;;;;12270692;28;20584;-38
2021/11/28 13:17:40;;;;;;;25.58;14.02;;;3.20;99.90;;;;;;12267160;28;20490;-38
2021/11/28 13:23:46;;;;;;;24.80;13.35;;;3.10;99.90;;;;;;12275627;28;20074;-38
2021/11/28 13:29:52;;;;;;;29.00;13.52;;;3.10;99.90;;;;;;12272449;28;20055;-38
2021/11/28 13:35:57;;;;;;;27.65;14.45;;;3.20;99.90;;;;;;12265820;28;20051;-38
2021/11/28 13:42:00;;;;;;;26.10;14.40;;;3.20;99.90;;;;;;12270238;28;20512;-38
2021/11/28 13:48:02;;;;;;;23.65;14.07;;;3.30;99.90;;;;;;12270550;28;20091;-38
2021/11/28 13:54:08;;;;;;;26.88;14.32;;;3.30;99.90;;;;;;12269085;28;20126;-38
2021/11/28 14:00:11;;;;;;;24.15;14.23;;;3.40;99.90;;;;;;12266559;28;20058;-38
2021/11/28 14:06:14;;;;;;;29.50;14.40;;;3.30;99.90;;;;;;12261797;28;20174;-39
2021/11/28 14:12:19;;;;;;;30.38;16.08;;;3.20;99.90;;;;;;12267918;28;20103;-39
2021/11/28 14:18:22;;;;;;;30.98;15.32;;;3.10;99.90;;;;;;12262854;28;20131;-37
2021/11/28 14:24:30;;;;;;;27.55;14.50;;;3.00;99.90;;;;;;12263357;28;20043;-37
2021/11/28 14:30:34;;;;;;;29.60;16.05;;;3.00;99.90;;;;;;12258034;28;20138;-39
2021/11/28 14:36:44;;;;;;;32.65;16.83;;;3.00;99.90;;;;;;12273071;28;20563;-38
2021/11/28 14:42:48;;;;;;;29.42;15.60;;;2.80;99.90;;;;;;12272475;28;20078;-37
2021/11/28 14:49:01;;;;;;;31.48;16.85;;;2.90;99.90;;;;;;12272955;28;20164;-38
2021/11/28 14:55:23;;;;;;;28.30;15.82;;;2.80;99.90;;;;;;12250307;28;20059;-39
2021/11/28 15:01:30;;;;;;;30.67;15.48;;;2.70;99.90;;;;;;12263878;28;20421;-39
2021/11/28 15:07:39;;;;;;;30.52;16.15;;;2.60;99.90;;;;;;12256110;28;20062;-37
2021/11/28 15:13:41;;;;;;;30.42;15.25;;;2.50;99.90;;;;;;12268442;28;20165;-38
2021/11/28 15:19:44;;;;;;;30.73;16.95;;;2.50;99.90;;;;;;12267230;28;20582;-38
2021/11/28 15:25:49;;;;;;;31.60;17.27;;;2.50;99.90;;;;;;12251475;28;20051;-39
2021/11/28 15:31:53;;;;;;;32.78;17.75;;;2.50;99.90;;;;;;12265382;28;20051;-39
2021/11/28 15:38:03;;;;;;;33.08;17.58;;;2.50;99.90;;;;;;12265908;28;20051;-37
2021/11/28 15:44:05;;;;;;;34.05;18.02;;;2.50;99.90;;;;;;12246410;28;20145;-37
2021/11/28 15:50:19;;;;;;;32.05;18.02;;;2.50;99.90;;;;;;12262873;28;20055;-39
2021/11/28 15:56:21;;;;;;;29.35;16.52;;;2.50;99.90;;;;;;12262050;28;20062;-38
2021/11/28 16:02:23;;;;;;;32.95;17.58;;;2.40;99.90;;;;;;12254449;28;20105;-39
2021/11/28 16:08:27;;;;;;;30.23;16.98;;;2.40;99.90;;;;;;12227822;28;20055;-38
2021/11/28 16:14:33;;;;;;;33.00;17.35;;;2.40;99.90;;;;;;12258647;28;20059;-39
2021/11/28 16:20:35;;;;;;;35.58;18.25;;;2.40;99.90;;;;;;12234035;28;20073;-39
2021/11/28 16:26:37;;;;;;;32.20;17.85;;;2.40;99.90;;;;;;12256047;28;20420;-39
2021/11/28 16:32:39;;;;;;;33.55;17.63;;;2.40;99.90;;;;;;12248651;28;20083;-38
2021/11/28 16:38:42;;;;;;;31.15;17.73;;;2.40;99.90;;;;;;12250516;28;20043;-39
2021/11/28 16:44:44;;;;;;;32.72;18.88;;;2.40;99.90;;;;;;12258039;28;20105;-39
2021/11/28 16:50:46;;;;;;;34.80;18.52;;;2.40;99.90;;;;;;12262388;28;20051;-39
2021/11/28 16:56:48;;;;;;;33.85;18.92;;;2.40;99.90;;;;;;12252699;28;20087;-37
2021/11/28 17:02:50;;;;;;;34.38;19.15;;;2.30;99.90;;;;;;12253189;28;20090;-38
2021/11/28 17:08:52;;;;;;;38.58;19.00;;;2.20;99.90;;;;;;12250736;28;20055;-39
2021/11/28 17:14:56;;;;;;;37.40;20.10;;;2.20;99.90;;;;;;12250238;28;20500;-38
2021/11/28 17:20:58;;;;;;;37.00;19.57;;;2.20;99.90;;;;;;12251591;28;20048;-38
2021/11/28 17:27:01;;;;;;;37.28;21.10;;;2.20;99.90;;;;;;12266748;28;20075;-38
2021/11/28 17:33:05;;;;;;;37.05;20.38;;;2.30;99.90;;;;;;12271132;28;20055;-39
2021/11/28 17:39:06;;;;;;;40.60;20.93;;;2.30;99.90;;;;;;12245899;28;20047;-38
2021/11/28 17:45:13;;;;;;;38.22;21.02;;;2.30;99.90;;;;;;12257951;28;20059;-38
2021/11/28 17:51:17;;;;;;;38.00;21.92;;;2.30;99.90;;;;;;12252817;28;20055;-38
2021/11/28 17:57:19;;;;;;;44.13;22.95;;;2.30;99.90;;;;;;12239769;28;20052;-38
2021/11/28 18:03:21;;;;;;;38.42;22.60;;;2.30;99.90;;;;;;12255684;28;20055;-38
2021/11/28 18:09:23;;;;;;;39.70;21.50;;;2.40;99.90;;;;;;12254575;28;20142;-38
2021/11/28 18:15:25;;;;;;;36.42;19.55;;;2.40;99.90;;;;;;12245508;28;20101;-39
2021/11/28 18:21:27;;;;;;;35.00;19.55;;;2.40;99.90;;;;;;12257770;28;20062;-38
2021/11/28 18:27:29;;;;;;;37.25;19.75;;;2.30;99.90;;;;;;12241430;28;20051;-38
2021/11/28 18:33:31;;;;;;;37.33;18.77;;;2.20;99.90;;;;;;12254673;28;20106;-40
2021/11/28 18:39:32;;;;;;;36.08;19.10;;;2.20;99.90;;;;;;12257614;28;20051;-38
2021/11/28 18:45:35;;;;;;;35.38;19.52;;;2.20;99.90;;;;;;12255997;28;20105;-38
2021/11/28 18:51:37;;;;;;;37.83;19.23;;;2.20;99.90;;;;;;12251141;28;20074;-38
2021/11/28 18:57:40;;;;;;;37.22;19.98;;;2.20;99.90;;;;;;12253316;28;20060;-38
2021/11/28 19:03:47;;;;;;;41.88;20.42;;;2.20;99.90;;;;;;12254452;28;20103;-38
2021/11/28 19:09:49;;;;;;;41.85;20.83;;;2.20;99.90;;;;;;12257009;28;20067;-39
2021/11/28 19:15:52;;;;;;;40.20;20.27;;;2.30;99.90;;;;;;12255274;28;20062;-39
2021/11/28 19:21:54;;;;;;;43.33;20.83;;;2.40;99.90;;;;;;12252362;28;20082;-40
2021/11/28 19:27:57;;;;;;;37.55;20.42;;;2.40;99.90;;;;;;12256616;28;20047;-39
2021/11/28 19:34:05;;;;;;;38.08;20.55;;;2.40;99.90;;;;;;12252740;28;20051;-40
2021/11/28 19:40:09;;;;;;;37.00;18.73;;;2.40;99.90;;;;;;12256015;28;20093;-39
2021/11/28 19:46:11;;;;;;;37.50;18.40;;;2.40;99.90;;;;;;12230628;28;20051;-38
2021/11/28 19:52:15;;;;;;;33.15;18.45;;;2.50;99.90;;;;;;12254310;28;20043;-39
2021/11/28 19:58:17;;;;;;;33.60;16.98;;;2.50;99.90;;;;;;12259190;28;20083;-39
2021/11/28 20:04:19;;;;;;;26.08;14.55;;;2.60;99.90;;;;;;12258697;28;20106;-38
2021/11/28 20:10:23;;;;;;;26.05;13.98;;;2.60;99.90;;;;;;12215851;28;20048;-39
2021/11/28 20:16:28;;;;;;;23.83;13.20;;;2.60;99.90;;;;;;12206045;29;20059;-40
2021/11/28 20:22:30;;;;;;;23.10;12.30;;;2.60;99.90;;;;;;12207143;29;20079;-39
2021/11/28 20:28:32;;;;;;;17.15;10.23;;;2.60;99.90;;;;;;12207000;29;20055;-39
2021/11/28 20:34:34;;;;;;;21.02;10.63;;;2.70;99.90;;;;;;12206735;29;20060;-39
2021/11/28 20:40:36;;;;;;;16.05;9.50;;;2.70;99.90;;;;;;12207763;29;20083;-39
2021/11/28 20:46:39;;;;;;;14.07;9.15;;;2.70;99.90;;;;;;12212636;29;20090;-38
2021/11/28 20:52:42;;;;;;;15.65;8.82;;;2.70;99.90;;;;;;12182927;29;20568;-38
2021/11/28 20:58:44;;;;;;;10.18;6.85;;;2.70;99.90;;;;;;12217725;29;20075;-38
2021/11/28 21:04:47;;;;;;;9.40;5.32;;;2.70;99.90;;;;;;12219698;29;20044;-38
2021/11/28 21:10:52;;;;;;;9.10;4.60;;;2.60;99.90;;;;;;12257883;28;20043;-38
2021/11/28 21:17:00;;;;;;;11.27;4.70;;;2.60;99.90;;;;;;12272059;28;20142;-38
2021/11/28 21:23:03;;;;;;;12.98;4.32;;;2.70;99.90;;;;;;12269867;28;20058;-39
2021/11/28 21:29:05;;;;;;;8.27;4.00;;;2.60;99.90;;;;;;12268000;28;20059;-38
2021/11/28 21:35:09;;;;;;;8.13;4.80;;;2.50;99.90;;;;;;12270348;28;20055;-39
2021/11/28 21:41:12;;;;;;;9.52;4.55;;;2.40;99.90;;;;;;12267332;28;20062;-38
2021/11/28 21:47:14;;;;;;;10.50;5.00;;;2.40;99.90;;;;;;12268271;28;20054;-38
2021/11/28 21:53:19;;;;;;;9.05;4.72;;;2.40;99.90;;;;;;12238549;28;20119;-38
2021/11/28 21:59:21;;;;;;;8.10;5.03;;;2.60;99.90;;;;;;12262191;28;20055;-38
2021/11/28 22:05:23;;;;;;;9.18;4.70;;;2.40;99.90;;;;;;12249661;28;20483;-38
2021/11/28 22:11:26;;;;;;;7.80;4.13;;;2.40;99.90;;;;;;12244501;28;20106;-38
2021/11/28 22:17:28;;;;;;;6.40;4.78;;;2.40;99.90;;;;;;12259893;28;20046;-40
2021/11/28 22:23:30;;;;;;;7.88;4.85;;;2.30;99.90;;;;;;12255559;28;20055;-37
2021/11/28 22:29:33;;;;;;;8.35;4.90;;;2.30;99.90;;;;;;12243554;28;20058;-37
2021/11/28 22:35:35;;;;;;;10.13;5.13;;;2.30;99.90;;;;;;12264351;28;20169;-38
2021/11/28 22:41:37;;;;;;;9.88;5.00;;;2.30;99.90;;;;;;12247424;28;20051;-39
2021/11/28 22:47:40;;;;;;;9.30;5.28;;;2.20;99.90;;;;;;12255189;28;20059;-38
2021/11/28 22:53:44;;;;;;;9.25;6.25;;;2.20;99.90;;;;;;12258593;28;20520;-40
2021/11/28 22:59:46;;;;;;;9.02;4.95;;;2.20;99.90;;;;;;12237894;28;20048;-38
2021/11/28 23:05:49;;;;;;;10.60;5.70;;;2.30;99.90;;;;;;12264843;28;20138;-39
2021/11/28 23:11:53;;;;;;;8.35;4.75;;;2.20;99.90;;;;;;12265447;28;20062;-39
2021/11/28 23:17:55;;;;;;;6.23;4.13;;;2.20;99.90;;;;;;12261244;28;20043;-39
2021/11/28 23:24:00;;;;;;;7.70;4.22;;;2.20;99.90;;;;;;12264519;28;20504;-38
2021/11/28 23:30:06;;;;;;;4.60;3.35;;;2.30;99.90;;;;;;12247884;28;20075;-37
2021/11/28 23:36:09;;;;;;;6.22;3.70;;;2.40;99.90;;;;;;12218977;28;20051;-38
2021/11/28 23:42:11;;;;;;;8.50;3.40;;;2.40;99.90;;;;;;12258880;28;20062;-38
2021/11/28 23:48:13;;;;;;;8.00;3.88;;;2.30;99.90;;;;;;12251946;28;20515;-37
2021/11/28 23:54:15;;;;;;;6.85;4.20;;;2.30;99.90;;;;;;12265124;28;20043;-39
